TimeEDT,TemperatureF,Dew PointF,Humidity,Sea Level PressureIn,VisibilityMPH,Wind Direction,Wind SpeedMPH,Gust SpeedMPH,PrecipitationIn,Events,Conditions,WindDirDegrees,DateUTC
12:54 AM,64.9,63.0,93,29.96,8.0,Calm,Calm,-,N/A,,Clear,0,2013-07-01 04:54:00
1:26 AM,64.4,64.4,100,29.94,6.0,Calm,Calm,-,N/A,,Mostly Cloudy,0,2013-07-01 05:26:00
1:54 AM,64.9,64.0,97,29.96,6.0,Calm,Calm,-,N/A,,Overcast,0,2013-07-01 05:54:00
2:54 AM,64.9,64.0,97,29.96,5.0,Calm,Calm,-,N/A,,Mostly Cloudy,0,2013-07-01 06:54:00
3:35 AM,64.4,62.6,94,29.93,6.0,Calm,Calm,-,N/A,,Scattered Clouds,0,2013-07-01 07:35:00
3:44 AM,64.4,62.6,94,29.93,5.0,Calm,Calm,-,N/A,,Mostly Cloudy,0,2013-07-01 07:44:00
3:54 AM,64.9,63.0,93,29.95,5.0,Calm,Calm,-,N/A,,Overcast,0,2013-07-01 07:54:00
4:46 AM,64.4,62.6,94,29.96,8.0,NNW,3.5,-,N/A,,Mostly Cloudy,330,2013-07-01 08:46:00
4:54 AM,64.0,63.0,96,29.97,8.0,Calm,Calm,-,N/A,,Mostly Cloudy,0,2013-07-01 08:54:00
5:54 AM,64.9,62.1,90,29.99,10.0,Calm,Calm,-,N/A,,Overcast,0,2013-07-01 09:54:00
6:15 AM,64.4,62.6,94,29.97,10.0,Calm,Calm,-,N/A,,Mostly Cloudy,0,2013-07-01 10:15:00
6:29 AM,64.4,62.6,94,29.98,9.0,Calm,Calm,-,N/A,,Mostly Cloudy,0,2013-07-01 10:29:00
6:52 AM,64.4,62.6,94,29.97,7.0,Calm,Calm,-,N/A,,Overcast,0,2013-07-01 10:52:00
6:54 AM,64.9,64.0,97,29.99,7.0,Calm,Calm,-,N/A,,Overcast,0,2013-07-01 10:54:00
7:33 AM,66.2,64.4,94,29.98,8.0,NNW,3.5,-,N/A,,Overcast,340,2013-07-01 11:33:00
7:54 AM,66.0,64.0,93,30.00,8.0,Calm,Calm,-,N/A,,Overcast,0,2013-07-01 11:54:00
8:07 AM,66.2,64.4,94,29.99,9.0,Calm,Calm,-,N/A,,Overcast,0,2013-07-01 12:07:00
8:21 AM,66.2,64.4,94,29.99,8.0,NW,3.5,-,N/A,,Overcast,320,2013-07-01 12:21:00
8:54 AM,66.0,64.0,93,30.00,7.0,North,4.6,-,0.01,,Overcast,350,2013-07-01 12:54:00
9:13 AM,66.2,64.4,94,29.99,8.0,NW,4.6,-,0.00,Rain,Light Rain,320,2013-07-01 13:13:00
9:24 AM,68.0,64.4,88,29.98,8.0,NW,6.9,-,0.00,,Overcast,320,2013-07-01 13:24:00
9:54 AM,68.0,64.0,87,30.00,10.0,NNW,8.1,-,0.00,,Overcast,330,2013-07-01 13:54:00
10:37 AM,68.0,64.4,88,29.98,9.0,WNW,4.6,-,0.00,Rain,Light Rain,300,2013-07-01 14:37:00
10:54 AM,68.0,64.9,90,30.01,7.0,WNW,4.6,-,0.00,Rain,Light Rain,300,2013-07-01 14:54:00
11:46 AM,66.2,64.4,94,29.99,4.0,NW,5.8,-,0.05,Rain,Light Rain,320,2013-07-01 15:46:00
11:54 AM,66.9,64.9,93,30.01,5.0,NW,8.1,-,0.05,Rain,Light Rain,310,2013-07-01 15:54:00
12:13 PM,66.2,64.4,94,29.99,6.0,NW,8.1,-,0.01,Rain,Light Rain,320,2013-07-01 16:13:00
12:54 PM,68.0,64.9,90,30.01,8.0,WNW,6.9,-,0.02,Rain,Light Rain,300,2013-07-01 16:54:00
1:19 PM,68.0,64.4,88,29.99,9.0,NW,6.9,-,0.00,Rain,Light Rain,310,2013-07-01 17:19:00
1:50 PM,68.0,64.4,88,29.99,10.0,NNW,9.2,-,0.00,,Overcast,330,2013-07-01 17:50:00
1:54 PM,68.0,64.9,90,30.00,10.0,NNW,10.4,-,0.00,,Overcast,330,2013-07-01 17:54:00
2:37 PM,66.2,64.4,94,29.99,8.0,NW,11.5,-,0.00,Rain,Light Rain,310,2013-07-01 18:37:00
2:54 PM,66.9,64.9,93,30.01,7.0,NW,9.2,-,0.00,Rain,Light Rain,310,2013-07-01 18:54:00
3:52 PM,66.2,64.4,94,29.99,4.0,NW,11.5,-,0.02,Rain,Light Rain,310,2013-07-01 19:52:00
3:54 PM,66.0,64.0,93,30.01,4.0,NW,10.4,-,0.02,Rain,Light Rain,310,2013-07-01 19:54:00
4:33 PM,66.2,64.4,94,30.00,2.0,WNW,8.1,-,0.04,Rain,Rain,300,2013-07-01 20:33:00
4:41 PM,66.2,64.4,94,30.00,3.0,NW,8.1,-,0.05,Rain,Light Rain,320,2013-07-01 20:41:00
4:54 PM,66.0,64.0,93,30.02,3.0,NW,6.9,-,0.06,Rain,Light Rain,310,2013-07-01 20:54:00
5:06 PM,66.2,64.4,94,30.00,4.0,NW,6.9,-,0.00,Rain,Light Rain,310,2013-07-01 21:06:00
5:54 PM,66.0,64.0,93,30.02,3.0,NW,8.1,-,0.01,Rain,Light Rain,320,2013-07-01 21:54:00
6:01 PM,66.2,64.4,94,30.00,3.0,NW,6.9,-,0.00,Rain,Light Rain,320,2013-07-01 22:01:00
6:08 PM,66.2,64.4,94,30.00,2.5,NW,6.9,-,0.01,Rain,Light Rain,310,2013-07-01 22:08:00
6:16 PM,66.2,64.4,94,30.00,4.0,NW,5.8,-,0.01,Rain,Light Rain,310,2013-07-01 22:16:00
6:30 PM,66.2,64.4,94,30.00,5.0,NW,5.8,-,0.01,,Overcast,310,2013-07-01 22:30:00
6:54 PM,66.0,64.9,96,30.03,8.0,NW,5.8,-,0.01,,Overcast,320,2013-07-01 22:54:00
7:20 PM,66.2,64.4,94,30.01,9.0,NW,8.1,-,N/A,,Overcast,320,2013-07-01 23:20:00
7:29 PM,66.2,64.4,94,30.01,6.0,NW,6.9,-,0.00,Rain,Light Rain,310,2013-07-01 23:29:00
7:54 PM,66.0,64.0,93,30.04,6.0,NW,8.1,-,0.01,,Overcast,320,2013-07-01 23:54:00
8:15 PM,66.2,64.4,94,30.03,2.5,NW,5.8,-,0.01,Rain,Light Rain,310,2013-07-02 00:15:00
8:23 PM,66.2,64.4,94,30.03,4.0,NW,9.2,-,0.01,Rain,Light Rain,310,2013-07-02 00:23:00
8:32 PM,64.4,64.4,100,30.03,5.0,NW,8.1,-,0.01,Rain,Light Rain,310,2013-07-02 00:32:00
8:54 PM,64.9,63.0,93,30.05,8.0,NW,6.9,-,0.01,,Overcast,310,2013-07-02 00:54:00
9:02 PM,64.4,64.4,100,30.04,8.0,NNW,8.1,-,N/A,,Overcast,340,2013-07-02 01:02:00
9:18 PM,64.4,62.6,94,30.03,8.0,NW,9.2,-,0.00,Rain,Light Rain,320,2013-07-02 01:18:00
9:46 PM,64.4,62.6,94,30.05,10.0,NW,9.2,-,0.00,,Overcast,310,2013-07-02 01:46:00
9:54 PM,64.0,63.0,96,30.07,10.0,NW,9.2,-,0.01,,Overcast,310,2013-07-02 01:54:00
10:54 PM,64.0,62.1,93,30.08,8.0,NW,9.2,-,N/A,,Overcast,310,2013-07-02 02:54:00
11:02 PM,62.6,62.6,100,30.06,7.0,NW,8.1,-,N/A,,Overcast,320,2013-07-02 03:02:00
11:54 PM,62.1,60.1,93,30.08,10.0,NW,8.1,-,N/A,,Overcast,310,2013-07-02 03:54:00